Time;durP1;ratioP1;P1;durP2;ratioP2;P2;SDS_P1;SDS_P2;PMS_P1;PMS_P2;Temp;Humidity;BMP_temperature;BMP_pressure;BME280_temperature;BME280_humidity;BME280_pressure;Samples;Min_cycle;Max_cycle;Signal;HPM_P1;HPM_P2
2023/09/13 00:02:43;;;;;;;9.20;2.22;;;18.60;83.60;;;17.55;73.69;99870.50;10355204;28;96605;-93
2023/09/13 00:07:47;;;;;;;3.47;1.88;;;18.60;83.80;;;17.48;74.23;99867.88;10357129;28;96722;-92
2023/09/13 00:12:51;;;;;;;2.85;1.80;;;18.50;84.00;;;17.46;74.21;99871.84;10341521;28;96377;-93
2023/09/13 00:17:56;;;;;;;5.43;2.47;;;18.40;84.10;;;17.37;74.86;99858.66;10348172;28;96760;-93
2023/09/13 00:22:59;;;;;;;3.55;2.00;;;18.40;84.60;;;17.33;75.43;99867.38;10359124;28;96427;-93
2023/09/13 00:28:03;;;;;;;3.42;1.90;;;18.30;84.90;;;17.26;75.64;99861.25;10341201;28;96580;-92
2023/09/13 00:33:07;;;;;;;6.68;2.00;;;18.20;85.20;;;17.21;75.77;99867.25;10338307;28;97090;-92
2023/09/13 00:38:11;;;;;;;3.83;1.90;;;18.20;85.40;;;17.13;76.29;99857.63;10340499;28;97369;-93
2023/09/13 00:43:15;;;;;;;5.80;2.30;;;18.10;86.50;;;17.08;76.32;99860.16;10356707;28;96769;-92
2023/09/13 00:48:18;;;;;;;4.68;2.03;;;18.10;86.10;;;17.10;75.83;99858.09;10334775;28;97363;-93
2023/09/13 00:53:25;;;;;;;3.15;1.85;;;18.10;85.80;;;17.13;75.20;99865.69;10349194;28;96604;-93
2023/09/13 00:58:30;;;;;;;3.75;1.73;;;18.20;85.90;;;17.07;75.41;99860.38;10352830;28;96964;-93
2023/09/13 01:03:34;;;;;;;3.20;1.98;;;18.10;86.00;;;16.99;76.23;99856.09;10321388;28;96584;-92
2023/09/13 01:08:42;;;;;;;4.95;1.73;;;18.00;86.20;;;16.97;76.16;99868.94;10358580;28;96679;-92
2023/09/13 01:13:46;;;;;;;6.35;2.13;;;17.90;86.40;;;16.88;76.49;99869.41;10360383;28;99636;-92
2023/09/13 01:19:25;;;;;;;4.15;1.75;;;17.80;86.70;;;16.82;76.27;99871.91;10337879;28;97414;-92
2023/09/13 01:24:39;;;;;;;3.95;1.60;;;17.80;86.70;;;16.79;76.33;99871.50;10355814;28;96608;-93
2023/09/13 01:29:46;;;;;;;3.97;1.77;;;17.80;86.70;;;16.73;75.85;99867.84;10370780;28;96668;-93
2023/09/13 01:34:50;;;;;;;4.55;1.95;;;17.80;86.70;;;16.68;76.05;99872.19;10345750;28;97427;-92
2023/09/13 01:39:53;;;;;;;4.95;1.92;;;17.70;86.70;;;16.65;76.43;99876.09;10380974;28;96528;-92
2023/09/13 01:44:58;;;;;;;4.88;1.92;;;17.70;86.90;;;16.64;76.59;99884.38;10359832;28;97154;-92
2023/09/13 01:50:04;;;;;;;7.95;2.30;;;17.70;86.90;;;16.61;76.83;99882.91;10346218;28;97138;-93
2023/09/13 01:55:09;;;;;;;4.63;2.20;;;17.70;87.20;;;16.56;77.30;99885.44;10362339;28;96681;-93
2023/09/13 02:00:14;;;;;;;5.35;2.00;;;17.60;87.50;;;16.53;77.04;99888.53;10339886;28;97993;-92
2023/09/13 02:05:17;;;;;;;4.68;1.95;;;17.60;87.60;;;16.43;77.31;99877.44;10339539;28;96535;-93
2023/09/13 02:10:23;;;;;;;4.57;2.10;;;17.60;87.80;;;16.51;77.67;99890.63;10361163;28;96600;-92
2023/09/13 02:15:28;;;;;;;7.93;2.60;;;17.50;88.00;;;16.49;78.24;99876.59;10355982;28;98471;-92
2023/09/13 02:20:31;;;;;;;11.70;2.03;;;17.50;88.20;;;16.40;78.26;99878.72;10325957;28;96544;-92
2023/09/13 02:25:37;;;;;;;5.05;1.60;;;17.60;88.40;;;16.40;78.45;99889.44;10361869;28;96555;-93
2023/09/13 02:30:41;;;;;;;4.00;2.17;;;17.40;88.60;;;16.27;79.05;99881.47;10336200;28;98103;-91
2023/09/13 02:35:47;;;;;;;3.33;2.08;;;17.40;88.90;;;16.22;79.28;99890.13;10358140;28;96474;-91
2023/09/13 02:40:51;;;;;;;3.03;1.85;;;17.30;89.40;;;16.13;79.63;99883.34;10360682;28;96530;-92
2023/09/13 02:45:55;;;;;;;6.25;2.55;;;17.20;89.70;;;16.08;79.78;99891.22;10342801;28;96634;-92
2023/09/13 02:50:59;;;;;;;4.95;2.15;;;17.10;90.00;;;16.02;80.01;99887.53;10363238;28;96621;-92
2023/09/13 02:56:09;;;;;;;4.88;1.88;;;17.10;90.00;;;15.98;80.15;99885.47;10361207;28;96555;-92
2023/09/13 03:01:13;;;;;;;4.05;2.25;;;17.00;90.20;;;15.89;80.35;99884.03;10337082;28;97282;-92
2023/09/13 03:06:17;;;;;;;5.05;1.92;;;17.00;90.20;;;15.93;80.00;99890.63;10324912;28;96635;-92
2023/09/13 03:11:20;;;;;;;4.47;2.00;;;17.00;90.20;;;15.87;80.39;99883.44;10362379;28;96624;-92
2023/09/13 03:16:24;;;;;;;3.10;1.90;;;16.90;90.30;;;15.88;80.17;99885.06;10373271;28;96681;-91
2023/09/13 03:21:28;;;;;;;6.63;2.25;;;16.90;90.30;;;15.76;80.21;99877.69;10343919;28;96726;-92
2023/09/13 03:26:32;;;;;;;5.22;2.40;;;16.90;90.40;;;15.75;80.47;99876.03;10376379;28;97376;-91
2023/09/13 03:31:38;;;;;;;4.07;2.10;;;16.80;90.50;;;15.72;80.73;99881.81;10355489;28;97918;-92
2023/09/13 03:36:43;;;;;;;4.85;2.22;;;16.80;90.50;;;15.70;81.27;99883.88;10351752;28;97704;-92
2023/09/13 03:41:47;;;;;;;4.43;2.40;;;16.80;90.70;;;15.69;81.22;99881.41;10376970;28;97133;-92
2023/09/13 03:46:51;;;;;;;5.30;2.45;;;16.80;90.80;;;15.64;81.42;99879.34;10350638;28;96855;-92
2023/09/13 03:51:55;;;;;;;5.18;2.30;;;16.70;90.80;;;15.59;81.94;99887.16;10342807;28;96521;-91
2023/09/13 03:56:58;;;;;;;4.35;2.10;;;16.70;91.10;;;15.53;82.52;99882.63;10341279;28;96576;-92
2023/09/13 04:02:03;;;;;;;4.78;2.70;;;16.60;91.30;;;15.42;82.82;99877.91;10353452;28;96889;-92
2023/09/13 04:07:06;;;;;;;8.73;2.72;;;16.50;91.50;;;15.40;83.20;99878.09;10356263;28;98115;-91
2023/09/13 04:12:10;;;;;;;4.95;2.53;;;16.50;91.50;;;15.42;83.12;99881.41;10349340;28;98632;-90
2023/09/13 04:17:13;;;;;;;7.28;2.53;;;16.50;91.60;;;15.41;82.94;99890.50;10366628;28;97377;-91
2023/09/13 04:22:17;;;;;;;4.80;2.42;;;16.50;91.70;;;15.39;83.39;99889.03;10348209;28;96924;-90
2023/09/13 04:27:22;;;;;;;4.30;2.47;;;16.50;91.80;;;15.42;83.09;99894.81;10325538;28;96897;-91
2023/09/13 04:32:26;;;;;;;8.13;2.95;;;16.50;91.80;;;15.45;83.26;99901.59;10334333;28;97438;-91
2023/09/13 04:37:30;;;;;;;6.78;2.63;;;16.50;91.90;;;15.37;83.87;99899.94;10336042;28;97641;-92
2023/09/13 04:42:42;;;;;;;4.22;2.67;;;16.50;92.20;;;15.33;84.62;99909.41;10335548;28;96577;-92
2023/09/13 04:47:46;;;;;;;8.52;3.35;;;16.40;92.80;;;15.25;85.65;99897.06;10337842;28;98522;-89
2023/09/13 04:52:50;;;;;;;7.68;3.20;;;16.40;93.00;;;15.37;85.92;99909.84;10339142;28;96637;-89
2023/09/13 04:57:53;;;;;;;5.13;2.95;;;16.40;93.00;;;15.45;86.29;99918.47;10325375;28;98557;-89
2023/09/13 05:02:57;;;;;;;6.47;3.42;;;16.50;93.10;;;15.59;86.29;99913.09;10315400;28;97368;-92
2023/09/13 05:08:01;;;;;;;9.70;4.03;;;16.60;93.10;;;15.74;86.73;99919.94;10329887;28;96573;-91
2023/09/13 05:13:05;;;;;;;7.15;2.78;;;16.80;93.20;;;15.86;86.77;99924.66;10333139;28;96605;-93
2023/09/13 05:18:09;;;;;;;9.80;3.85;;;16.90;93.50;;;15.91;86.54;99909.59;10356027;28;96589;-92
2023/09/13 05:23:12;;;;;;;6.22;3.20;;;17.00;93.30;;;16.15;86.36;99929.53;10329834;28;96564;-93
2023/09/13 05:28:16;;;;;;;4.40;2.65;;;17.20;93.30;;;16.28;86.41;99928.66;10330911;28;97685;-93
2023/09/13 05:33:20;;;;;;;5.07;2.70;;;17.30;93.30;;;16.48;86.20;99940.13;10354554;28;96580;-93
2023/09/13 05:38:24;;;;;;;6.88;2.13;;;17.50;93.30;;;16.60;85.90;99926.88;10316967;28;98166;-93
2023/09/13 05:43:29;;;;;;;6.20;3.10;;;17.70;93.40;;;16.83;85.40;99935.25;10354779;28;96584;-93
2023/09/13 05:48:34;;;;;;;8.05;2.75;;;17.90;93.30;;;17.03;84.88;99940.53;10328229;28;97755;-92
2023/09/13 05:53:38;;;;;;;8.70;3.20;;;18.10;93.20;;;17.17;84.98;99927.84;10335779;28;96973;-92
2023/09/13 05:58:43;;;;;;;10.75;3.97;;;18.20;93.10;;;17.42;84.89;99927.03;10323221;28;97733;-91
2023/09/13 06:03:47;;;;;;;10.48;3.13;;;18.50;93.10;;;17.70;84.37;99930.09;10343841;28;96662;-91
2023/09/13 06:08:51;;;;;;;8.02;2.83;;;18.70;92.90;;;17.94;83.30;99938.38;10323644;28;96576;-92
2023/09/13 06:13:55;;;;;;;6.45;2.65;;;19.00;92.80;;;18.18;82.59;99937.50;10335232;28;96642;-92
2023/09/13 06:18:59;;;;;;;7.53;3.22;;;19.20;92.60;;;18.42;81.51;99935.78;10355351;28;96636;-92
2023/09/13 06:24:03;;;;;;;5.95;2.40;;;19.40;92.40;;;18.55;80.25;99926.72;10359591;28;97515;-92
2023/09/13 06:29:09;;;;;;;6.57;2.80;;;19.60;92.10;;;18.77;78.84;99927.88;10334993;28;96674;-92
2023/09/13 06:34:14;;;;;;;7.20;2.88;;;19.90;91.90;;;18.96;78.57;99926.81;10364449;28;96617;-92
2023/09/13 06:39:28;;;;;;;4.88;2.22;;;20.00;91.70;;;19.25;77.06;99929.66;10336632;28;97592;-93
2023/09/13 06:44:33;;;;;;;4.47;2.20;;;20.30;91.40;;;19.49;75.08;99922.44;10311907;28;96785;-93
2023/09/13 06:49:49;;;;;;;6.32;2.17;;;20.50;91.00;;;19.72;73.42;99929.75;10351962;28;96567;-92
2023/09/13 06:54:54;;;;;;;7.78;2.60;;;20.70;90.50;;;19.90;71.60;99920.72;10372746;28;96629;-92
2023/09/13 07:00:03;;;;;;;5.13;2.10;;;21.00;90.10;;;20.12;70.45;99934.44;10329882;28;98408;-92
2023/09/13 07:05:10;;;;;;;7.00;2.80;;;21.10;89.60;;;20.29;69.15;99921.88;10345826;28;97709;-92
2023/09/13 07:10:17;;;;;;;4.50;2.40;;;21.40;88.60;;;20.49;67.83;99930.41;10348462;28;97029;-92
2023/09/13 07:15:21;;;;;;;6.72;2.35;;;21.60;87.60;;;20.75;67.86;99930.88;10334577;28;98098;-92
2023/09/13 07:20:25;;;;;;;3.53;2.08;;;21.80;87.00;;;20.96;65.17;99926.69;10353954;28;98036;-92
2023/09/13 07:25:28;;;;;;;2.80;1.70;;;22.10;84.90;;;21.18;64.65;99932.25;10352325;28;96492;-93
2023/09/13 07:30:32;;;;;;;3.78;1.67;;;22.30;84.70;;;21.47;64.07;99933.00;10366024;28;96686;-93
2023/09/13 07:35:36;;;;;;;3.58;1.55;;;22.50;84.20;;;21.71;62.85;99920.97;10331572;28;96614;-94
2023/09/13 07:40:40;;;;;;;4.68;1.90;;;22.70;83.50;;;21.99;61.37;99930.00;10351352;28;96624;-94
2023/09/13 07:45:46;;;;;;;3.20;1.88;;;23.00;82.30;;;22.13;59.61;99924.03;10357212;28;96542;-92
2023/09/13 07:50:49;;;;;;;5.07;1.83;;;23.30;81.20;;;22.38;59.04;99928.13;10369454;28;98447;-93
2023/09/13 07:55:53;;;;;;;3.05;1.60;;;23.50;80.40;;;22.59;55.94;99927.28;10334333;28;96882;-93
2023/09/13 08:00:56;;;;;;;3.67;2.08;;;23.70;78.90;;;22.86;57.72;99930.03;10357529;28;96601;-92
2023/09/13 08:06:03;;;;;;;5.13;2.25;;;24.00;78.80;;;23.07;56.12;99935.69;10333331;28;96800;-93
2023/09/13 08:11:07;;;;;;;3.20;1.63;;;24.20;77.70;;;23.31;55.76;99922.63;10353637;28;97238;-92
2023/09/13 08:16:10;;;;;;;3.97;1.90;;;24.50;77.10;;;23.60;54.36;99926.66;10339408;28;96571;-93
2023/09/13 08:21:14;;;;;;;6.63;2.30;;;24.80;76.10;;;23.83;52.29;99913.81;10338717;28;96585;-93
2023/09/13 08:26:18;;;;;;;4.97;1.73;;;25.00;74.20;;;24.13;52.29;99918.59;10338088;28;96750;-93
2023/09/13 08:31:31;;;;;;;5.55;2.35;;;25.20;74.10;;;24.30;51.57;99919.22;10342697;28;97454;-94
2023/09/13 08:36:34;;;;;;;4.20;1.70;;;25.50;73.20;;;24.61;51.35;99922.91;10354636;28;96600;-93
2023/09/13 08:41:38;;;;;;;2.80;1.65;;;25.70;72.80;;;24.85;51.47;99915.06;10338574;28;97932;-94
2023/09/13 08:46:42;;;;;;;5.85;2.13;;;25.90;72.70;;;25.12;50.74;99911.31;10331512;28;97529;-93
2023/09/13 08:51:48;;;;;;;1.80;1.58;;;26.20;72.00;;;25.47;49.78;99921.41;10379432;28;97547;-93
2023/09/13 08:56:53;;;;;;;4.50;2.67;;;26.50;71.50;;;25.77;49.82;99918.69;10385119;28;96605;-93
2023/09/13 09:01:59;;;;;;;5.55;1.80;;;26.80;71.00;;;26.03;49.42;99915.88;10369694;28;97119;-93
2023/09/13 09:07:05;;;;;;;3.13;1.92;;;27.10;70.60;;;26.29;48.57;99917.44;10379912;28;96376;-94
2023/09/13 09:12:11;;;;;;;4.13;1.77;;;27.40;70.00;;;26.55;47.59;99925.53;10399670;27;96931;-94
2023/09/13 09:17:16;;;;;;;3.50;2.17;;;27.60;69.40;;;26.80;46.95;99925.38;10400867;27;96215;-91
2023/09/13 09:22:22;;;;;;;11.60;2.50;;;27.80;69.00;;;26.94;46.85;99923.69;10395883;28;96274;-93
2023/09/13 09:27:25;;;;;;;4.38;2.50;;;28.00;68.40;;;27.11;46.35;99909.69;10356125;28;96597;-93
2023/09/13 09:32:29;;;;;;;3.72;2.53;;;28.20;67.80;;;27.44;46.22;99924.41;10371855;28;96623;-94
2023/09/13 09:37:35;;;;;;;4.90;2.67;;;28.40;67.50;;;27.76;45.40;99914.84;10362712;28;97321;-92
2023/09/13 09:42:39;;;;;;;5.15;2.75;;;28.70;66.90;;;27.94;45.15;99897.72;10357755;28;96673;-94
2023/09/13 09:47:43;;;;;;;4.88;2.25;;;28.90;66.40;;;28.30;43.82;99907.44;10350824;28;97404;-95
2023/09/13 09:52:50;;;;;;;6.18;3.58;;;29.30;65.60;;;28.57;43.46;99898.66;10359404;28;96664;-95
2023/09/13 09:57:55;;;;;;;4.10;2.53;;;29.60;65.30;;;28.85;42.00;99880.47;10338379;28;96538;-94
2023/09/13 10:02:59;;;;;;;5.68;3.13;;;30.00;64.10;;;29.33;41.35;99879.16;10338733;28;96801;-92
2023/09/13 10:08:03;;;;;;;5.65;2.83;;;30.40;63.40;;;29.62;40.68;99874.56;10338758;28;96674;-93
2023/09/13 10:13:13;;;;;;;5.88;2.80;;;30.60;62.70;;;29.76;39.85;99864.47;10311813;28;97017;-95
2023/09/13 10:18:18;;;;;;;7.35;2.92;;;30.70;61.70;;;29.98;39.43;99864.56;10359659;28;98819;-95
2023/09/13 10:23:40;;;;;;;3.92;2.60;;;30.90;61.10;;;30.17;38.64;99863.66;10344702;28;97922;-94
2023/09/13 10:28:46;;;;;;;5.30;2.65;;;31.10;60.20;;;30.23;38.04;99868.75;10346299;28;96570;-94
2023/09/13 10:33:52;;;;;;;3.35;2.45;;;31.20;59.50;;;30.18;37.85;99854.34;10344958;28;96496;-95
2023/09/13 10:39:21;;;;;;;4.03;2.63;;;31.20;58.90;;;30.14;38.05;99864.28;10345456;28;96674;-93
2023/09/13 10:44:25;;;;;;;4.03;2.42;;;31.10;59.00;;;30.14;38.19;99862.34;10326475;28;97216;-93
2023/09/13 10:49:28;;;;;;;4.60;3.17;;;31.10;59.00;;;30.27;38.49;99856.03;10341816;28;96645;-93
2023/09/13 10:54:33;;;;;;;4.35;2.42;;;31.20;59.30;;;30.37;37.93;99852.28;10343874;28;96464;-93
2023/09/13 10:59:38;;;;;;;6.20;2.75;;;31.30;58.90;;;30.38;37.36;99849.22;10334914;28;96652;-94
2023/09/13 11:04:42;;;;;;;4.88;2.83;;;31.40;58.00;;;30.50;37.34;99845.13;10344748;28;97736;-94
2023/09/13 11:09:46;;;;;;;3.78;2.70;;;31.40;57.70;;;30.74;37.08;99850.38;10343897;28;97197;-94
2023/09/13 11:14:51;;;;;;;5.35;3.03;;;31.70;57.50;;;31.04;36.85;99840.59;10351195;28;96661;-92
2023/09/13 11:20:28;;;;;;;4.88;3.13;;;32.00;57.50;;;31.46;36.16;99843.94;10335985;28;96808;-92
2023/09/13 11:25:47;;;;;;;3.40;2.45;;;32.30;56.70;;;31.77;35.87;99843.91;10361872;28;96401;-93
2023/09/13 11:31:07;;;;;;;7.07;3.20;;;32.60;57.30;;;31.93;34.89;99834.13;10363285;28;96729;-94
2023/09/13 11:36:20;;;;;;;5.05;2.90;;;32.90;56.30;;;32.02;34.52;99829.47;10343040;28;96521;-92
2023/09/13 11:41:24;;;;;;;3.97;2.90;;;32.90;55.60;;;31.84;34.73;99828.59;10323148;28;96589;-94
2023/09/13 11:46:28;;;;;;;3.58;2.67;;;32.70;55.60;;;31.85;34.78;99826.69;10339172;28;96879;-94
2023/09/13 11:51:33;;;;;;;4.30;3.10;;;32.70;55.70;;;32.05;34.67;99822.53;10341203;28;97071;-93
2023/09/13 11:56:43;;;;;;;3.13;2.57;;;32.90;55.70;;;32.19;33.54;99835.00;10337532;28;96883;-94
2023/09/13 12:01:52;;;;;;;5.82;3.15;;;33.10;55.00;;;32.22;34.44;99814.31;10345707;28;96607;-93
2023/09/13 12:06:59;;;;;;;3.85;3.10;;;33.20;55.20;;;32.52;34.13;99820.84;10388070;28;96648;-92
2023/09/13 12:12:08;;;;;;;6.78;3.30;;;33.40;55.10;;;32.57;33.84;99811.59;10343895;28;97976;-94
2023/09/13 12:17:14;;;;;;;;;;;33.50;54.70;;;32.68;34.04;99821.94;10357022;28;96637;-93
2023/09/13 12:22:19;;;;;;;4.50;3.05;;;33.50;54.30;;;32.54;33.76;99809.50;10341785;28;96656;-93
2023/09/13 12:27:23;;;;;;;3.85;2.80;;;33.50;54.40;;;32.16;33.99;99801.88;10357417;28;96523;-94
2023/09/13 12:32:27;;;;;;;4.30;2.83;;;33.20;54.40;;;32.01;34.07;99803.13;10350791;28;97565;-94
2023/09/13 12:37:31;;;;;;;4.88;3.00;;;32.90;54.40;;;31.95;33.54;99790.66;10357097;28;96809;-94
2023/09/13 12:42:38;;;;;;;5.63;2.70;;;32.80;53.80;;;31.95;33.68;99790.66;10357161;28;96471;-93
2023/09/13 12:47:42;;;;;;;7.70;3.33;;;32.80;54.10;;;31.90;33.05;99779.81;10353263;28;98389;-94
2023/09/13 12:52:46;;;;;;;3.72;2.70;;;32.70;53.40;;;31.90;33.24;99774.31;10334702;28;96640;-93
2023/09/13 12:57:52;;;;;;;5.15;3.00;;;32.80;54.00;;;31.82;32.68;99769.63;10374729;28;96557;-93
2023/09/13 13:02:55;;;;;;;5.32;3.17;;;32.70;52.70;;;31.70;32.65;99760.03;10348584;28;97345;-92
2023/09/13 13:08:03;;;;;;;5.32;2.92;;;32.60;52.80;;;31.56;33.25;99751.09;10331919;28;96461;-94
2023/09/13 13:13:08;;;;;;;5.07;2.38;;;32.50;53.00;;;31.57;32.67;99746.41;10358299;28;96608;-94
2023/09/13 13:18:12;;;;;;;3.85;2.53;;;32.40;52.90;;;31.55;31.61;99755.00;10355008;28;96465;-93
2023/09/13 13:23:16;;;;;;;3.15;2.30;;;32.40;51.50;;;31.56;31.24;99755.78;10341158;28;96536;-93
2023/09/13 13:28:19;;;;;;;3.55;2.50;;;32.40;51.40;;;31.55;30.52;99759.63;10336154;28;96790;-95
2023/09/13 13:33:23;;;;;;;3.88;2.47;;;32.30;50.40;;;31.44;31.21;99734.44;10340081;28;96869;-93
2023/09/13 13:38:27;;;;;;;2.95;1.95;;;32.30;50.60;;;31.45;31.08;99738.78;10337394;28;96608;-93
2023/09/13 13:43:35;;;;;;;3.33;2.35;;;32.30;50.80;;;31.39;31.30;99746.38;10354849;28;96645;-91
2023/09/13 13:48:38;;;;;;;3.05;1.85;;;32.20;50.70;;;31.42;30.87;99739.41;10335581;28;97511;-93
2023/09/13 13:53:42;;;;;;;3.00;2.20;;;32.20;50.80;;;31.40;30.76;99726.00;10312759;28;96512;-93
2023/09/13 13:58:47;;;;;;;3.15;2.38;;;32.20;50.50;;;31.34;30.83;99732.78;10339377;28;98868;-92
2023/09/13 14:03:50;;;;;;;3.35;2.30;;;32.20;50.40;;;31.25;31.60;99729.19;10373502;28;96439;-92
2023/09/13 14:08:54;;;;;;;2.85;2.25;;;32.10;50.70;;;31.22;31.66;99724.28;10357530;28;96450;-92
2023/09/13 14:13:58;;;;;;;3.05;2.53;;;32.10;51.00;;;31.17;32.04;99705.22;10336823;28;97208;-92
2023/09/13 14:19:01;;;;;;;3.00;2.28;;;32.10;51.10;;;31.29;31.78;99723.88;10354015;28;97170;-93
2023/09/13 14:24:06;;;;;;;2.95;2.22;;;32.10;51.00;;;31.22;30.45;99707.81;10337800;28;98592;-93
2023/09/13 14:29:14;;;;;;;4.50;2.30;;;32.20;50.20;;;31.25;30.69;99709.16;10331563;28;96631;-92
2023/09/13 14:34:18;;;;;;;2.63;1.77;;;32.20;50.00;;;31.21;30.71;99705.41;10348448;28;97187;-93
2023/09/13 14:39:22;;;;;;;2.95;2.38;;;32.20;50.00;;;31.16;30.15;99711.84;10361993;28;96579;-94
2023/09/13 14:44:26;;;;;;;2.90;2.28;;;32.10;49.30;;;31.00;30.70;99710.63;10355223;28;96782;-93
2023/09/13 14:49:30;;;;;;;3.58;2.50;;;32.00;49.70;;;30.84;30.95;99713.00;10352522;28;96609;-93
2023/09/13 14:54:34;;;;;;;3.08;2.38;;;31.80;49.70;;;30.66;31.97;99709.31;10335978;28;96575;-93
2023/09/13 14:59:38;;;;;;;4.80;2.22;;;31.60;50.30;;;30.50;32.67;99711.59;10355983;28;97535;-94
2023/09/13 15:04:50;;;;;;;3.85;2.47;;;31.50;50.80;;;30.32;33.07;99712.59;10356939;28;97018;-93
2023/09/13 15:09:54;;;;;;;3.97;2.40;;;31.30;51.20;;;30.14;34.01;99711.66;10346601;28;96646;-93
2023/09/13 15:14:59;;;;;;;3.00;2.25;;;31.10;51.70;;;30.00;34.47;99706.19;10341708;28;96751;-93
2023/09/13 15:20:04;;;;;;;2.97;1.88;;;30.90;52.00;;;29.91;36.21;99709.97;10360409;28;96700;-94
2023/09/13 15:25:08;;;;;;;3.53;2.25;;;30.80;52.80;;;29.77;36.96;99710.00;10345008;28;96874;-93
2023/09/13 15:30:12;;;;;;;2.72;1.98;;;30.60;53.70;;;29.64;37.08;99702.63;10340873;28;98908;-93
2023/09/13 15:35:16;;;;;;;4.80;2.08;;;30.50;54.30;;;29.47;37.96;99698.53;10360644;28;96763;-93
2023/09/13 15:40:19;;;;;;;5.03;2.45;;;30.40;54.80;;;29.30;37.57;99701.88;10341506;28;97503;-93
2023/09/13 15:45:23;;;;;;;3.67;2.20;;;30.20;55.10;;;29.10;39.21;99704.22;10326875;28;96613;-92
2023/09/13 15:50:26;;;;;;;5.03;2.33;;;30.00;55.70;;;28.85;39.30;99709.03;10359394;28;96417;-93
2023/09/13 15:55:31;;;;;;;5.03;2.40;;;29.70;56.20;;;28.59;39.91;99711.34;10357600;28;96623;-93
2023/09/13 16:00:35;;;;;;;3.55;1.90;;;29.50;56.40;;;28.38;38.68;99713.63;10346525;28;97305;-93
2023/09/13 16:05:41;;;;;;;3.22;1.73;;;29.30;56.40;;;28.22;38.26;99712.19;10340619;28;97352;-93
2023/09/13 16:10:45;;;;;;;2.05;1.50;;;29.10;56.30;;;28.04;38.58;99713.84;10337809;28;96540;-93
2023/09/13 16:15:49;;;;;;;2.30;1.77;;;28.90;56.20;;;27.80;38.09;99691.25;10291101;28;96771;-92
2023/09/13 16:20:52;;;;;;;3.03;1.83;;;28.80;56.10;;;27.72;38.68;99695.44;10334013;28;97277;-93
2023/09/13 16:25:56;;;;;;;3.28;1.88;;;28.60;56.10;;;27.57;38.47;99695.59;10315730;28;96405;-92
2023/09/13 16:31:00;;;;;;;3.35;2.08;;;28.50;56.20;;;27.44;38.41;99687.03;10288472;28;96518;-93
2023/09/13 16:36:07;;;;;;;2.40;1.80;;;28.40;56.30;;;27.30;38.72;99691.56;10294096;28;96629;-93
2023/09/13 16:41:10;;;;;;;2.38;1.50;;;28.20;56.40;;;27.13;39.10;99699.41;10274307;28;96561;-93
2023/09/13 16:46:14;;;;;;;3.15;1.92;;;28.00;56.50;;;26.95;39.96;99696.28;10302358;28;97103;-93
2023/09/13 16:51:19;;;;;;;2.72;2.00;;;27.80;56.80;;;26.78;39.96;99701.34;10326563;28;96534;-93
2023/09/13 16:56:24;;;;;;;2.97;2.03;;;27.70;57.00;;;26.72;40.92;99707.94;10325244;28;96554;-92
2023/09/13 17:01:28;;;;;;;4.13;2.55;;;27.60;57.40;;;26.69;42.08;99716.72;10306549;28;96728;-92
2023/09/13 17:06:33;;;;;;;6.22;2.70;;;27.50;58.40;;;26.69;43.54;99719.44;10309607;28;96782;-92
2023/09/13 17:11:36;;;;;;;4.00;3.20;;;27.40;59.30;;;26.67;44.43;99710.72;10301117;28;96669;-91
2023/09/13 17:16:40;;;;;;;4.50;3.47;;;27.40;60.10;;;26.59;45.65;99716.78;10359836;28;96534;-91
2023/09/13 17:21:46;;;;;;;4.32;3.22;;;27.40;61.30;;;26.51;46.31;99715.50;10373057;28;96521;-89
2023/09/13 17:26:50;;;;;;;4.18;3.00;;;27.30;62.10;;;26.41;46.75;99716.38;10402293;28;96440;-90
2023/09/13 17:32:11;;;;;;;5.32;2.88;;;27.20;62.50;;;26.27;47.06;99728.16;10394561;28;96482;-89
2023/09/13 17:37:15;;;;;;;3.67;2.80;;;27.10;62.80;;;26.12;47.48;99731.81;10371096;28;97327;-91
2023/09/13 17:42:18;;;;;;;4.18;2.97;;;26.90;63.10;;;25.95;47.87;99723.19;10373670;28;96678;-93
2023/09/13 17:47:22;;;;;;;5.20;3.00;;;26.80;63.40;;;25.73;49.39;99724.41;10339804;28;96587;-92
2023/09/13 17:52:26;;;;;;;66.38;31.95;;;26.60;64.40;;;25.43;51.25;99733.47;10348695;28;96563;-92
2023/09/13 17:57:30;;;;;;;6.28;3.05;;;26.30;65.60;;;25.16;52.40;99730.25;10365423;28;96455;-92
2023/09/13 18:02:34;;;;;;;6.68;3.95;;;26.00;66.50;;;24.88;53.40;99716.13;10366978;28;96554;-92
2023/09/13 18:07:40;;;;;;;7.47;3.80;;;25.70;67.30;;;24.75;54.52;99730.28;10364870;28;97600;-92
2023/09/13 18:12:46;;;;;;;5.45;3.45;;;25.60;68.30;;;24.62;55.47;99739.78;10372890;28;96583;-92
2023/09/13 18:17:50;;;;;;;6.45;3.58;;;25.40;69.60;;;24.51;55.92;99746.31;10358132;28;97310;-92
2023/09/13 18:22:59;;;;;;;5.40;3.25;;;25.30;69.60;;;24.43;56.50;99753.09;10311325;28;96482;-91
2023/09/13 18:28:05;;;;;;;5.45;3.35;;;25.20;70.90;;;24.38;57.22;99760.41;10314616;28;96535;-92
2023/09/13 18:33:09;;;;;;;4.63;3.45;;;25.10;70.80;;;24.37;57.29;99756.06;10347223;28;96592;-92
2023/09/13 18:38:13;;;;;;;6.18;3.38;;;25.10;70.80;;;24.38;57.33;99763.94;10362737;28;96572;-92
2023/09/13 18:43:16;;;;;;;5.13;3.45;;;25.10;71.20;;;24.37;57.49;99762.31;10362913;28;96542;-92
2023/09/13 18:48:19;;;;;;;5.20;3.90;;;25.20;71.50;;;24.32;57.61;99761.47;10345063;28;96688;-92
2023/09/13 18:53:26;;;;;;;5.18;3.17;;;25.10;71.80;;;24.36;57.93;99766.13;10337027;28;96870;-92
2023/09/13 18:58:30;;;;;;;6.88;4.00;;;25.10;71.80;;;24.35;57.89;99758.22;10327793;28;98187;-92
2023/09/13 19:03:35;;;;;;;5.13;3.72;;;25.10;71.80;;;24.38;57.71;99758.50;10346379;28;97460;-93
2023/09/13 19:08:42;;;;;;;4.57;3.40;;;25.10;71.70;;;24.31;57.81;99744.34;10334705;28;96717;-90
2023/09/13 19:13:49;;;;;;;5.88;3.88;;;25.20;71.60;;;24.30;58.55;99757.13;10359191;28;96607;-90
2023/09/13 19:18:56;;;;;;;7.65;4.00;;;25.20;71.70;;;24.13;59.17;99751.13;10329336;28;96618;-90
2023/09/13 19:24:01;;;;;;;5.68;3.75;;;25.10;72.20;;;23.93;60.36;99757.31;10336135;28;96528;-90
2023/09/13 19:29:05;;;;;;;7.38;3.67;;;24.90;72.70;;;23.74;61.01;99756.13;10354544;28;98003;-89
2023/09/13 19:34:08;;;;;;;5.07;3.42;;;24.70;73.20;;;23.54;61.26;99759.53;10343450;28;97051;-90
2023/09/13 19:39:12;;;;;;;5.45;3.58;;;24.50;73.70;;;23.35;62.17;99763.78;10353680;28;96771;-90
2023/09/13 19:44:16;;;;;;;5.28;3.55;;;24.30;74.30;;;23.25;62.76;99772.66;10339975;28;96671;-90
2023/09/13 19:49:21;;;;;;;6.43;3.92;;;24.10;74.60;;;23.08;63.49;99761.97;10342153;28;96603;-90
2023/09/13 19:54:24;;;;;;;5.85;4.07;;;24.00;75.20;;;23.06;64.19;99779.59;10356947;28;96585;-90
2023/09/13 19:59:29;;;;;;;5.03;3.45;;;23.90;75.70;;;22.94;63.95;99782.47;10340321;28;96685;-90
2023/09/13 20:04:32;;;;;;;6.07;4.03;;;23.80;75.90;;;22.86;65.08;99763.97;10326184;28;97630;-90
2023/09/13 20:09:36;;;;;;;5.22;3.65;;;23.70;76.40;;;22.79;65.38;99769.59;10340253;28;96567;-90
2023/09/13 20:14:41;;;;;;;6.22;4.25;;;23.70;77.00;;;22.74;66.28;99755.19;10300364;28;96595;-90
2023/09/13 20:19:50;;;;;;;8.00;4.80;;;23.70;77.30;;;22.64;67.00;99747.78;10331298;28;96606;-90
2023/09/13 20:24:53;;;;;;;8.05;4.30;;;23.70;77.70;;;22.71;67.40;99757.34;10341362;28;96608;-90
2023/09/13 20:29:57;;;;;;;5.10;4.07;;;23.60;77.90;;;22.70;67.91;99761.13;10346790;28;98341;-90
2023/09/13 20:35:04;;;;;;;5.28;3.85;;;23.60;78.30;;;22.69;67.73;99775.75;10352223;28;97998;-91
2023/09/13 20:40:09;;;;;;;6.90;4.13;;;23.60;78.60;;;22.67;68.34;99779.75;10356807;28;96484;-91
2023/09/13 20:45:13;;;;;;;8.65;3.80;;;23.60;79.00;;;22.61;69.08;99778.94;10334041;28;97556;-91
2023/09/13 20:50:18;;;;;;;6.00;4.45;;;23.50;79.60;;;22.54;69.13;99758.53;10347136;28;96631;-92
2023/09/13 20:55:22;;;;;;;5.43;3.90;;;23.40;79.80;;;22.56;69.14;99754.50;10317165;28;96462;-92
2023/09/13 21:00:26;;;;;;;12.68;4.90;;;23.40;80.00;;;22.56;69.78;99748.28;10329437;28;96644;-92
2023/09/13 21:05:30;;;;;;;4.97;3.55;;;23.40;80.30;;;22.52;69.69;99745.25;10332308;28;96689;-92
2023/09/13 21:10:33;;;;;;;4.80;3.85;;;23.40;80.40;;;22.44;71.06;99741.13;10340662;28;96562;-91